Time;durP1;ratioP1;P1;durP2;ratioP2;P2;SDS_P1;SDS_P2;PMS_P1;PMS_P2;Temp;Humidity;BMP_temperature;BMP_pressure;BME280_temperature;BME280_humidity;BME280_pressure;Samples;Min_cycle;Max_cycle;Signal;HPM_P1;HPM_P2
2023/09/20 00:00:55;;;;;;;6.90;2.10;;;;;;;16.17;100.00;100245.53;4993365;23;20323;-44
2023/09/20 00:03:21;;;;;;;5.75;2.38;;;;;;;16.15;100.00;100252.88;4986845;28;20185;-46
2023/09/20 00:05:49;;;;;;;5.50;2.13;;;;;;;16.17;100.00;100248.22;4986943;28;20635;-45
2023/09/20 00:08:15;;;;;;;6.30;2.28;;;;;;;16.15;100.00;100241.22;4985324;28;20182;-45
2023/09/20 00:10:40;;;;;;;6.78;2.55;;;;;;;16.16;100.00;100232.13;4985395;28;20662;-46
2023/09/20 00:13:09;;;;;;;6.05;2.40;;;;;;;16.16;100.00;100243.81;4984444;28;20190;-45
2023/09/20 00:15:35;;;;;;;6.95;2.47;;;;;;;16.16;100.00;100254.63;4985517;28;20212;-45
2023/09/20 00:18:01;;;;;;;5.20;2.10;;;;;;;16.17;100.00;100250.06;4980769;28;20202;-44
2023/09/20 00:20:26;;;;;;;6.35;2.72;;;;;;;16.15;100.00;100244.75;4983218;28;20200;-45
2023/09/20 00:22:52;;;;;;;3.13;2.03;;;;;;;16.14;100.00;100239.50;4987160;28;20202;-44
2023/09/20 00:25:17;;;;;;;4.45;2.65;;;;;;;16.25;100.00;100245.00;4985429;28;20177;-45
2023/09/20 00:27:46;;;;;;;7.22;2.97;;;;;;;16.19;100.00;100242.72;4986176;28;20264;-43
2023/09/20 00:30:17;;;;;;;5.70;2.58;;;;;;;16.20;100.00;100252.53;4984808;28;20601;-43
2023/09/20 00:32:44;;;;;;;5.20;2.25;;;;;;;16.23;100.00;100255.06;4983178;28;20213;-45
2023/09/20 00:35:14;;;;;;;6.13;2.80;;;;;;;16.23;100.00;100250.50;4984320;28;20190;-44
2023/09/20 00:37:41;;;;;;;4.95;2.50;;;;;;;16.22;100.00;100247.91;4984863;28;20225;-44
2023/09/20 00:40:21;;;;;;;6.35;2.38;;;;;;;16.27;100.00;100253.88;4975363;28;20192;-46
2023/09/20 00:42:49;;;;;;;8.70;2.60;;;;;;;16.22;100.00;100253.31;4985128;28;20639;-43
2023/09/20 00:45:18;;;;;;;6.95;2.75;;;;;;;16.29;100.00;100262.72;4985320;28;20595;-44
2023/09/20 00:47:47;;;;;;;5.63;2.55;;;;;;;16.24;100.00;100254.91;4992391;28;20199;-45
2023/09/20 00:50:14;;;;;;;4.03;2.40;;;;;;;16.34;100.00;100260.56;4990490;28;20181;-45
2023/09/20 00:52:43;;;;;;;6.25;2.78;;;;;;;16.33;100.00;100280.44;4985612;28;20224;-45
2023/09/20 00:55:20;;;;;;;5.45;2.28;;;;;;;16.32;100.00;100267.06;4985257;28;20177;-45
2023/09/20 00:57:48;;;;;;;7.05;2.47;;;;;;;16.32;100.00;100265.19;4985620;28;20225;-44
2023/09/20 01:00:47;;;;;;;12.05;3.10;;;;;;;16.36;100.00;100269.41;4992261;28;20685;-45
2023/09/20 01:03:08;;;;;;;7.88;2.53;;;;;;;16.37;100.00;100276.53;5000130;28;20205;-44
2023/09/20 01:05:39;;;;;;;4.90;2.47;;;;;;;16.39;100.00;100280.00;4991461;28;20213;-45
2023/09/20 01:08:06;;;;;;;4.82;2.13;;;;;;;16.39;100.00;100271.03;4986359;28;20241;-44
2023/09/20 01:10:33;;;;;;;4.97;2.30;;;;;;;16.40;100.00;100260.13;4989164;28;20213;-45
2023/09/20 01:13:04;;;;;;;7.20;2.40;;;;;;;16.36;100.00;100261.31;4992985;28;20205;-45
2023/09/20 01:15:31;;;;;;;5.72;2.40;;;;;;;16.37;100.00;100265.72;4986140;28;20182;-46
2023/09/20 01:17:58;;;;;;;6.32;2.40;;;;;;;16.36;100.00;100265.84;4987184;28;20228;-44
2023/09/20 01:20:29;;;;;;;6.45;2.63;;;;;;;16.37;100.00;100275.69;4985983;28;20581;-44
2023/09/20 01:22:56;;;;;;;6.47;2.22;;;;;;;16.35;100.00;100264.97;4987319;28;20206;-46
2023/09/20 01:25:30;;;;;;;7.38;2.58;;;;;;;16.40;100.00;100264.66;4997347;28;20272;-45
2023/09/20 01:27:58;;;;;;;8.05;2.92;;;;;;;16.37;100.00;100257.63;4984882;28;20190;-45
2023/09/20 01:30:26;;;;;;;6.47;2.35;;;;;;;16.39;100.00;100265.63;4988234;28;20268;-45
2023/09/20 01:32:53;;;;;;;5.35;2.60;;;;;;;16.42;100.00;100266.28;4988352;28;20209;-45
2023/09/20 01:35:22;;;;;;;9.75;2.53;;;;;;;16.45;100.00;100254.38;4984204;28;20688;-44
2023/09/20 01:37:49;;;;;;;11.57;2.65;;;;;;;16.41;100.00;100261.84;4985767;28;20224;-44
2023/09/20 01:40:15;;;;;;;7.97;2.70;;;;;;;16.42;100.00;100262.69;4986963;28;20173;-44
2023/09/20 01:42:43;;;;;;;10.50;2.65;;;;;;;16.42;100.00;100265.38;4988371;28;20201;-44
2023/09/20 01:45:19;;;;;;;8.10;2.55;;;;;;;16.43;100.00;100268.00;4983282;28;20236;-43
2023/09/20 01:47:49;;;;;;;8.20;2.30;;;;;;;16.46;100.00;100259.69;4984724;28;20204;-45
2023/09/20 01:50:25;;;;;;;11.48;2.60;;;;;;;16.46;100.00;100264.19;4977560;28;20193;-45
2023/09/20 01:52:53;;;;;;;5.00;2.22;;;;;;;16.46;100.00;100264.19;4982671;28;20297;-45
2023/09/20 01:55:24;;;;;;;6.45;2.63;;;;;;;16.44;100.00;100267.03;4984710;28;20178;-46
2023/09/20 01:57:55;;;;;;;7.13;2.60;;;;;;;16.46;100.00;100264.19;4983529;28;20641;-47
2023/09/20 02:00:23;;;;;;;7.47;2.85;;;;;;;16.48;100.00;100263.09;4990749;28;20193;-44
2023/09/20 02:02:54;;;;;;;7.47;2.63;;;;;;;16.48;100.00;100273.94;4980733;28;20198;-46
2023/09/20 02:05:29;;;;;;;7.50;2.90;;;;;;;16.52;100.00;100263.78;4990914;28;20686;-45
2023/09/20 02:07:56;;;;;;;5.25;2.38;;;;;;;16.52;100.00;100263.78;4981146;28;20210;-46
2023/09/20 02:10:22;;;;;;;11.32;3.00;;;;;;;16.53;100.00;100257.41;4983771;28;20248;-45
2023/09/20 02:12:53;;;;;;;8.27;2.53;;;;;;;16.54;100.00;100259.13;4982838;28;20206;-44
2023/09/20 02:15:20;;;;;;;9.18;2.70;;;;;;;16.51;100.00;100264.75;4986366;28;20180;-47
2023/09/20 02:17:47;;;;;;;6.53;2.35;;;;;;;16.54;100.00;100274.47;4966803;28;20228;-46
2023/09/20 02:20:24;;;;;;;7.30;1.92;;;;;;;16.56;100.00;100267.13;4985537;28;20478;-45
2023/09/20 02:22:52;;;;;;;6.97;2.65;;;;;;;16.55;100.00;100263.56;4983588;28;20317;-45
2023/09/20 02:25:22;;;;;;;4.93;1.98;;;;;;;16.52;100.00;100269.19;4982344;28;20205;-46
2023/09/20 02:27:57;;;;;;;6.57;2.72;;;;;;;16.58;100.00;100249.81;4983408;28;20185;-45
2023/09/20 02:30:28;;;;;;;7.70;2.30;;;;;;;16.56;100.00;100267.97;4986631;28;20193;-46
2023/09/20 02:32:57;;;;;;;6.50;2.47;;;;;;;16.56;100.00;100267.13;4984334;28;20634;-45
2023/09/20 02:35:30;;;;;;;5.53;2.20;;;;;;;16.58;100.00;100263.31;4991868;28;20181;-44
2023/09/20 02:37:57;;;;;;;6.25;2.35;;;;;;;16.58;100.00;100265.19;4984971;28;20217;-44
2023/09/20 02:40:26;;;;;;;7.55;2.30;;;;;;;16.57;100.00;100261.59;4985873;28;20181;-45
2023/09/20 02:42:54;;;;;;;6.53;2.47;;;;;;;16.56;100.00;100257.16;4981797;28;20730;-46
2023/09/20 02:45:22;;;;;;;5.65;2.50;;;;;;;16.54;100.00;100248.28;4990088;28;20181;-43
2023/09/20 02:47:49;;;;;;;7.93;2.00;;;;;;;16.60;100.00;100260.53;5002569;28;20180;-44
2023/09/20 02:50:18;;;;;;;11.93;3.33;;;;;;;16.60;100.00;100266.78;4980342;28;20181;-45
2023/09/20 02:52:45;;;;;;;7.75;2.70;;;;;;;16.58;100.00;100270.59;4981301;28;20220;-46
2023/09/20 02:55:16;;;;;;;5.97;2.20;;;;;;;16.58;100.00;100257.06;4978033;28;20664;-44
2023/09/20 02:57:44;;;;;;;10.27;2.45;;;;;;;16.58;100.00;100263.31;4982578;28;20245;-44
2023/09/20 03:00:15;;;;;;;8.90;2.83;;;;;;;16.58;100.00;100254.34;4987288;28;20194;-44
2023/09/20 03:02:50;;;;;;;9.20;2.20;;;;;;;16.58;100.00;100266.03;4987836;28;20210;-46
2023/09/20 03:05:17;;;;;;;7.05;2.30;;;;;;;16.59;100.00;100256.94;4994143;28;20228;-45
2023/09/20 03:07:44;;;;;;;12.82;2.67;;;;;;;16.65;100.00;100255.63;4972514;28;20181;-43
2023/09/20 03:10:13;;;;;;;7.05;2.20;;;;;;;16.65;100.00;100261.91;4980715;28;20191;-44
2023/09/20 03:12:46;;;;;;;5.25;2.13;;;;;;;16.64;100.00;100260.19;4983166;28;20476;-45
2023/09/20 03:15:16;;;;;;;3.60;2.05;;;;;;;16.61;100.00;100259.53;4982447;28;20212;-45
2023/09/20 03:17:43;;;;;;;5.78;2.67;;;;;;;16.60;100.00;100250.56;4984161;28;20212;-44
2023/09/20 03:20:10;;;;;;;5.38;1.90;;;;;;;16.58;100.00;100254.34;4985745;28;20661;-46
2023/09/20 03:22:38;;;;;;;4.88;2.80;;;;;;;16.46;100.00;100275.03;5001674;28;20198;-45
2023/09/20 03:25:04;;;;;;;5.45;2.30;;;;;;;16.35;100.00;100274.94;4986231;28;20188;-46
2023/09/20 03:27:31;;;;;;;9.02;2.75;;;;;;;16.27;100.00;100279.03;4990149;28;20205;-46
2023/09/20 03:29:57;;;;;;;8.68;2.60;;;;;;;16.22;100.00;100266.81;4985518;28;20200;-44
2023/09/20 03:32:23;;;;;;;6.68;2.50;;;;;;;16.23;100.00;100265.88;4982715;28;20634;-44
2023/09/20 03:34:49;;;;;;;10.55;2.75;;;;;;;16.28;100.00;100269.09;4982599;28;20643;-45
2023/09/20 03:37:18;;;;;;;4.90;2.40;;;;;;;16.26;100.00;100279.16;4982850;28;20194;-44
2023/09/20 03:39:46;;;;;;;6.93;2.28;;;;;;;16.30;100.00;100274.41;4988646;28;20280;-45
2023/09/20 03:42:11;;;;;;;5.25;2.00;;;;;;;16.36;100.00;100274.81;4982206;28;20808;-44
2023/09/20 03:44:39;;;;;;;6.68;2.30;;;;;;;16.42;100.00;100266.28;4992015;28;20189;-44
2023/09/20 03:47:06;;;;;;;4.50;2.08;;;;;;;16.40;100.00;100272.78;4984688;28;20651;-45
2023/09/20 03:49:32;;;;;;;5.18;2.45;;;;;;;16.39;100.00;100277.28;4988945;28;20367;-44
2023/09/20 03:52:00;;;;;;;10.07;2.85;;;;;;;16.42;100.00;100268.09;4984547;28;20297;-46
2023/09/20 03:54:28;;;;;;;7.55;2.42;;;;;;;16.45;100.00;100273.31;4984229;28;20192;-43
2023/09/20 03:56:55;;;;;;;9.52;2.40;;;;;;;16.45;100.00;100263.34;4987393;28;20178;-44
2023/09/20 03:59:21;;;;;;;8.10;2.42;;;;;;;16.44;100.00;100288.66;4981908;28;20723;-46
2023/09/20 04:01:46;;;;;;;4.57;1.95;;;;;;;16.44;100.00;100283.25;4982150;28;20225;-44
2023/09/20 04:04:16;;;;;;;9.35;2.85;;;;;;;16.45;100.00;100279.56;4981714;28;20221;-44
2023/09/20 04:06:44;;;;;;;5.30;2.50;;;;;;;16.43;100.00;100280.66;4989678;28;20182;-46
2023/09/20 04:09:10;;;;;;;10.40;2.58;;;;;;;16.43;100.00;100283.38;4984827;28;20190;-43
2023/09/20 04:11:40;;;;;;;6.93;2.60;;;;;;;16.42;100.00;100277.09;4984632;28;20234;-45
2023/09/20 04:14:10;;;;;;;8.73;2.83;;;;;;;16.41;100.00;100278.06;4985697;28;20181;-43
2023/09/20 04:16:36;;;;;;;8.77;2.50;;;;;;;16.42;100.00;100293.31;4986621;28;20643;-46
2023/09/20 04:19:02;;;;;;;8.30;2.80;;;;;;;16.43;100.00;100284.22;4992425;28;20210;-46
2023/09/20 04:21:28;;;;;;;4.30;2.20;;;;;;;16.41;100.00;100288.88;4988425;28;20204;-44
2023/09/20 04:23:53;;;;;;;6.63;2.50;;;;;;;16.41;100.00;100279.91;4970111;28;20648;-46
2023/09/20 04:26:19;;;;;;;5.53;2.63;;;;;;;16.45;100.00;100281.41;4991739;28;20267;-45
2023/09/20 04:28:44;;;;;;;4.90;2.70;;;;;;;16.41;100.00;100283.47;4984559;28;20642;-46
2023/09/20 04:31:10;;;;;;;8.10;2.50;;;;;;;16.41;100.00;100285.31;4985125;28;20213;-45
2023/09/20 04:33:38;;;;;;;8.45;2.70;;;;;;;16.40;100.00;100289.00;4991192;28;20169;-44
2023/09/20 04:36:04;;;;;;;7.22;2.95;;;;;;;16.38;100.00;100282.84;4982919;28;20186;-46
2023/09/20 04:38:31;;;;;;;7.82;2.63;;;;;;;16.38;100.00;100272.88;4997203;28;20260;-46
2023/09/20 04:40:59;;;;;;;8.25;2.92;;;;;;;16.35;100.00;100283.91;4985995;28;20205;-44
2023/09/20 04:43:25;;;;;;;8.98;3.58;;;;;;;16.38;100.00;100286.41;4987314;28;20185;-46
2023/09/20 04:45:50;;;;;;;6.70;3.35;;;;;;;16.45;100.00;100294.94;4984172;28;20188;-44
2023/09/20 04:48:16;;;;;;;9.98;3.67;;;;;;;16.39;100.00;100277.28;4988121;28;20190;-44
2023/09/20 04:50:41;;;;;;;9.85;3.30;;;;;;;16.43;100.00;100283.38;4984618;28;20185;-44
2023/09/20 04:53:08;;;;;;;6.72;2.75;;;;;;;16.47;100.00;100293.00;4991358;28;20197;-45
2023/09/20 04:55:34;;;;;;;8.90;2.90;;;;;;;16.45;100.00;100287.69;4986233;28;20220;-44
2023/09/20 04:58:00;;;;;;;12.10;3.30;;;;;;;16.47;100.00;100303.81;4982905;28;20621;-46
2023/09/20 05:00:33;;;;;;;6.75;3.00;;;;;;;16.52;100.00;100306.19;5000832;28;20247;-47
2023/09/20 05:03:00;;;;;;;7.15;2.88;;;;;;;16.50;100.00;100297.31;4992394;28;20597;-45
2023/09/20 05:05:26;;;;;;;9.02;2.95;;;;;;;16.54;100.00;100306.94;4986321;28;20319;-47
2023/09/20 05:07:52;;;;;;;6.55;2.83;;;;;;;16.52;100.00;100292.66;4986632;28;20278;-45
2023/09/20 05:10:19;;;;;;;6.97;3.13;;;;;;;16.52;100.00;100303.47;4983233;28;20229;-46
2023/09/20 05:12:47;;;;;;;6.68;3.00;;;;;;;16.54;100.00;100290.72;4984387;28;20682;-46
2023/09/20 05:15:13;;;;;;;9.80;2.53;;;;;;;16.53;100.00;100289.84;4984098;28;20190;-45
2023/09/20 05:17:43;;;;;;;7.35;2.60;;;;;;;16.57;100.00;100301.28;4994360;28;20177;-45
2023/09/20 05:20:13;;;;;;;8.27;3.25;;;;;;;16.57;100.00;100296.75;4988091;28;20266;-46
2023/09/20 05:22:39;;;;;;;9.13;2.45;;;;;;;16.59;100.00;100304.75;4985377;28;20209;-47
2023/09/20 05:25:07;;;;;;;8.38;2.55;;;;;;;16.62;100.00;100305.41;4981222;28;20208;-45
2023/09/20 05:27:33;;;;;;;5.57;2.78;;;;;;;16.61;100.00;100302.81;4987928;28;20208;-46
2023/09/20 05:29:59;;;;;;;7.80;2.95;;;;;;;16.62;100.00;100309.97;4990084;28;20205;-47
2023/09/20 05:32:25;;;;;;;10.93;2.58;;;;;;;16.65;100.00;100309.72;4984999;28;20698;-47
2023/09/20 05:34:50;;;;;;;8.25;2.70;;;;;;;16.66;100.00;100306.94;4983502;28;20169;-47
2023/09/20 05:37:16;;;;;;;11.30;2.83;;;;;;;16.61;100.00;100302.81;4986649;28;20204;-46
2023/09/20 05:39:43;;;;;;;7.53;2.75;;;;;;;16.61;100.00;100311.78;4988742;28;20694;-47
2023/09/20 05:42:09;;;;;;;7.38;2.58;;;;;;;16.57;100.00;100309.41;4981171;28;20209;-46
2023/09/20 05:44:36;;;;;;;6.00;2.40;;;;;;;16.61;100.00;100302.81;4989963;28;20184;-47
2023/09/20 05:47:05;;;;;;;8.68;2.30;;;;;;;16.66;100.00;100322.25;4984982;28;20181;-45
2023/09/20 05:49:30;;;;;;;9.05;2.58;;;;;;;16.64;100.00;100305.31;4983236;28;20264;-47
2023/09/20 05:51:56;;;;;;;7.32;2.80;;;;;;;16.66;100.00;100303.31;4985767;28;20747;-45
2023/09/20 05:54:22;;;;;;;8.80;2.85;;;;;;;16.67;100.00;100315.91;4986830;28;20186;-47
2023/09/20 05:56:51;;;;;;;4.88;2.65;;;;;;;16.65;100.00;100313.28;4997815;23;20283;-45
2023/09/20 05:59:16;;;;;;;7.32;2.63;;;;;;;16.73;100.00;100304.63;4974286;28;20300;-45
2023/09/20 06:01:42;;;;;;;6.60;2.42;;;;;;;16.70;100.00;100312.97;4976859;28;20205;-46
2023/09/20 06:04:09;;;;;;;5.28;2.40;;;;;;;16.76;100.00;100317.94;4975327;28;20193;-46
2023/09/20 06:06:38;;;;;;;8.23;3.00;;;;;;;16.73;100.00;100317.31;4978556;28;20273;-46
2023/09/20 06:09:05;;;;;;;6.65;3.05;;;;;;;16.72;100.00;100331.78;4982971;28;20184;-47
2023/09/20 06:11:31;;;;;;;6.13;2.72;;;;;;;16.73;100.00;100320.00;4980140;28;20695;-47
2023/09/20 06:13:56;;;;;;;6.95;2.58;;;;;;;16.73;100.00;100318.16;4977962;28;20268;-49
2023/09/20 06:16:24;;;;;;;6.38;2.47;;;;;;;16.67;100.00;100324.00;4977876;28;20725;-46
2023/09/20 06:18:50;;;;;;;5.78;2.45;;;;;;;16.74;100.00;100322.59;4979522;28;20201;-49
2023/09/20 06:21:17;;;;;;;9.80;2.40;;;;;;;16.69;100.00;100331.03;4976242;28;20236;-49
2023/09/20 06:23:46;;;;;;;9.00;2.55;;;;;;;16.71;100.00;100314.72;4971011;28;20177;-47
2023/09/20 06:26:12;;;;;;;5.30;2.20;;;;;;;16.74;100.00;100322.59;4982289;28;20556;-47
2023/09/20 06:28:41;;;;;;;6.95;2.92;;;;;;;16.75;100.00;100318.91;4976761;28;20197;-47
2023/09/20 06:31:14;;;;;;;8.63;2.20;;;;;;;16.75;100.00;100318.91;4981700;28;20256;-47
2023/09/20 06:33:41;;;;;;;10.90;2.83;;;;;;;16.77;100.00;100329.59;4973917;28;20627;-47
2023/09/20 06:36:07;;;;;;;6.45;2.63;;;;;;;16.79;100.00;100327.66;4978411;28;20181;-48
2023/09/20 06:38:35;;;;;;;11.68;2.95;;;;;;;16.77;100.00;100327.78;4976334;28;20728;-47
2023/09/20 06:41:00;;;;;;;8.27;2.55;;;;;;;16.76;100.00;100330.59;4978642;28;20209;-47
2023/09/20 06:43:27;;;;;;;8.48;2.65;;;;;;;16.79;100.00;100316.84;4979081;28;20206;-46
2023/09/20 06:45:53;;;;;;;6.22;2.88;;;;;;;16.79;100.00;100324.94;4979737;28;20261;-46
2023/09/20 06:48:22;;;;;;;4.97;2.17;;;;;;;16.83;100.00;100323.78;4964386;28;20772;-48
2023/09/20 06:50:52;;;;;;;8.60;2.65;;;;;;;16.89;100.00;100326.91;4976233;28;20200;-46
2023/09/20 06:53:18;;;;;;;7.80;2.25;;;;;;;16.93;100.00;100324.88;4979916;28;20702;-48
2023/09/20 06:55:47;;;;;;;6.57;2.53;;;;;;;16.94;99.81;100315.75;4974083;28;20640;-47
2023/09/20 06:58:13;;;;;;;5.30;2.28;;;;;;;16.96;99.38;100323.78;4977736;28;20197;-47
2023/09/20 07:00:39;;;;;;;4.68;2.30;;;;;;;17.00;99.35;100317.16;4978792;28;20553;-47
2023/09/20 07:03:05;;;;;;;6.20;2.80;;;;;;;17.12;99.01;100328.91;4980232;28;20189;-47
2023/09/20 07:05:31;;;;;;;7.40;2.15;;;;;;;17.22;98.72;100332.69;4976405;28;20222;-47
2023/09/20 07:08:00;;;;;;;5.43;2.50;;;;;;;17.26;97.94;100332.34;4978204;28;20436;-47
2023/09/20 07:10:29;;;;;;;9.73;2.63;;;;;;;17.29;97.22;100326.72;4977751;28;20598;-47
2023/09/20 07:12:56;;;;;;;9.48;2.70;;;;;;;17.46;96.75;100330.00;4973743;28;20317;-46
2023/09/20 07:15:25;;;;;;;8.45;2.38;;;;;;;17.47;96.27;100329.00;4982305;28;20671;-47
2023/09/20 07:17:58;;;;;;;6.10;2.28;;;;;;;17.44;95.27;100331.94;4977165;28;20213;-46
2023/09/20 07:20:31;;;;;;;7.82;2.40;;;;;;;17.29;94.94;100342.97;4978001;28;20229;-49
2023/09/20 07:22:58;;;;;;;7.53;2.50;;;;;;;17.29;94.99;100334.84;4976128;28;20235;-46
2023/09/20 07:25:27;;;;;;;6.80;2.28;;;;;;;17.26;95.41;100337.75;4977935;28;20194;-49
2023/09/20 07:27:55;;;;;;;7.85;2.55;;;;;;;17.34;95.56;100333.59;4980793;28;20224;-49
2023/09/20 07:30:23;;;;;;;9.20;2.72;;;;;;;17.45;95.47;100330.97;4976333;28;20723;-47
2023/09/20 07:32:50;;;;;;;7.93;2.40;;;;;;;17.84;94.56;100331.66;4978527;28;20577;-49
2023/09/20 07:35:26;;;;;;;7.20;2.75;;;;;;;17.76;93.67;100326.81;4979037;28;20234;-48
2023/09/20 07:37:57;;;;;;;8.68;2.50;;;;;;;17.85;92.64;100322.56;4976938;28;20308;-47
2023/09/20 07:40:35;;;;;;;7.13;2.42;;;;;;;18.09;91.98;100322.50;4976055;28;20189;-48
2023/09/20 07:43:04;;;;;;;6.40;2.20;;;;;;;18.44;91.09;100319.72;4973801;28;20317;-48
2023/09/20 07:45:41;;;;;;;4.40;2.05;;;;;;;18.80;89.48;100319.66;4975341;28;20178;-47
2023/09/20 07:48:13;;;;;;;7.30;2.53;;;;;;;18.84;87.86;100316.56;4972437;28;20213;-47
2023/09/20 07:50:43;;;;;;;5.40;2.08;;;;;;;18.49;87.11;100312.09;4975799;28;20213;-47
2023/09/20 07:53:11;;;;;;;8.65;2.28;;;;;;;18.36;87.44;100322.19;4978793;28;20189;-47
2023/09/20 07:55:44;;;;;;;6.88;2.30;;;;;;;18.21;88.16;100313.41;4977693;28;20699;-47
2023/09/20 07:58:11;;;;;;;6.40;2.35;;;;;;;18.27;88.23;100322.91;4973536;28;20197;-47
2023/09/20 08:00:56;;;;;;;6.03;2.30;;;;;;;18.14;88.44;100330.28;4979392;28;20202;-47
2023/09/20 08:03:22;;;;;;;7.65;2.22;;;;;;;18.26;88.54;100330.19;4978729;28;20716;-47
2023/09/20 08:05:48;;;;;;;7.38;2.20;;;;;;;18.26;88.53;100334.75;4976683;28;20261;-47
2023/09/20 08:08:14;;;;;;;5.68;2.30;;;;;;;18.18;88.28;100331.78;4978755;28;20276;-47
2023/09/20 08:10:41;;;;;;;8.40;2.47;;;;;;;18.17;89.09;100338.16;4977311;28;20678;-46
2023/09/20 08:13:07;;;;;;;6.93;2.78;;;;;;;18.10;88.93;100340.50;4975311;28;20225;-47
2023/09/20 08:15:42;;;;;;;6.55;2.25;;;;;;;18.17;89.19;100336.34;4973321;28;20177;-47
2023/09/20 08:20:53;;;;;;;6.20;2.20;;;;;;;18.24;89.03;100347.56;4971128;28;20213;-47
2023/09/20 09:02:14;;;;;;;6.90;2.30;;;;;;;17.95;88.85;100371.50;4965996;28;20214;-47
2023/09/20 09:04:45;;;;;;;8.45;2.90;;;;;;;17.97;89.16;100383.09;4971679;28;20183;-47
2023/09/20 09:07:11;;;;;;;7.22;2.67;;;;;;;17.91;89.72;100379.00;4965525;28;20185;-46
2023/09/20 09:09:38;;;;;;;10.00;2.72;;;;;;;18.00;89.75;100393.72;4970346;28;20183;-47
2023/09/20 09:12:04;;;;;;;7.68;3.00;;;;;;;17.92;89.64;100394.28;4966359;28;20263;-47
2023/09/20 09:14:30;;;;;;;5.72;2.60;;;;;;;17.98;90.22;100391.09;4968545;28;20281;-48
2023/09/20 09:17:03;;;;;;;7.78;3.08;;;;;;;18.06;90.03;100394.09;4969873;28;20178;-47
2023/09/20 09:19:29;;;;;;;6.03;2.67;;;;;;;18.18;89.96;100388.72;4967132;28;20231;-46
2023/09/20 09:21:56;;;;;;;6.07;2.45;;;;;;;18.23;89.46;100384.66;4973324;28;20313;-47
2023/09/20 09:24:21;;;;;;;6.63;2.40;;;;;;;18.24;89.06;100380.13;4963653;28;20177;-49
2023/09/20 09:26:48;;;;;;;5.35;2.50;;;;;;;18.26;89.37;100375.44;4971676;28;20205;-47
2023/09/20 09:29:17;;;;;;;6.10;2.55;;;;;;;18.19;88.76;100374.16;4981643;28;20169;-47
2023/09/20 09:31:49;;;;;;;6.72;2.70;;;;;;;18.22;88.79;100390.22;4969161;28;20232;-47
2023/09/20 09:34:21;;;;;;;9.10;2.72;;;;;;;18.19;88.53;100385.91;4969054;28;20245;-47
2023/09/20 09:36:47;;;;;;;6.68;2.65;;;;;;;18.27;88.36;100391.56;4965019;28;20186;-47
2023/09/20 09:39:14;;;;;;;7.38;2.78;;;;;;;18.33;88.50;100399.22;4968722;28;20684;-47
2023/09/20 09:41:41;;;;;;;7.53;2.30;;;;;;;18.47;88.36;100386.44;4965517;28;20209;-49
2023/09/20 09:44:07;;;;;;;7.38;2.67;;;;;;;18.48;88.21;100377.34;4971787;28;20251;-47
2023/09/20 09:46:36;;;;;;;5.97;2.40;;;;;;;18.56;87.94;100385.72;4969521;28;20186;-46
2023/09/20 09:49:02;;;;;;;6.10;2.60;;;;;;;18.55;87.47;100380.44;4966435;28;20625;-47
2023/09/20 09:51:32;;;;;;;5.28;2.33;;;;;;;18.64;87.56;100391.41;4971246;28;20202;-48
2023/09/20 09:54:00;;;;;;;8.13;2.40;;;;;;;18.66;87.16;100386.72;4967748;28;20185;-47
2023/09/20 09:56:26;;;;;;;6.80;2.22;;;;;;;18.70;86.59;100380.06;4967297;28;20289;-47
2023/09/20 09:58:51;;;;;;;5.40;2.30;;;;;;;18.74;86.45;100391.56;4967759;28;20205;-46
2023/09/20 10:01:19;;;;;;;5.63;2.55;;;;;;;18.85;86.38;100388.88;4969181;28;20310;-48
2023/09/20 10:03:49;;;;;;;6.82;2.42;;;;;;;18.91;86.15;100385.66;4969655;28;20197;-46
2023/09/20 10:06:21;;;;;;;6.60;2.45;;;;;;;18.92;85.88;100381.97;4966975;28;20186;-47
2023/09/20 10:08:54;;;;;;;8.93;2.63;;;;;;;18.96;85.58;100396.16;4972150;28;20173;-49
2023/09/20 10:11:25;;;;;;;7.95;2.03;;;;;;;18.94;85.70;100393.56;4964303;28;20202;-47
2023/09/20 10:13:52;;;;;;;5.38;2.30;;;;;;;18.85;85.58;100401.59;4968131;28;20182;-47
2023/09/20 10:16:18;;;;;;;6.05;2.40;;;;;;;18.69;85.63;100400.06;4971993;28;20287;-47
2023/09/20 10:18:53;;;;;;;10.10;2.20;;;;;;;18.70;86.28;100403.63;4969297;28;20293;-47
2023/09/20 10:21:24;;;;;;;5.45;2.47;;;;;;;18.61;86.88;100407.09;4967832;28;20242;-48
2023/09/20 10:23:58;;;;;;;7.72;2.38;;;;;;;18.75;86.67;100409.56;4967629;28;20178;-47
2023/09/20 10:26:24;;;;;;;5.53;2.63;;;;;;;18.74;86.73;100408.69;4973540;28;20198;-47
2023/09/20 10:29:17;;;;;;;12.23;2.15;;;;;;;18.77;86.78;100406.72;4965980;28;20184;-49
2023/09/20 10:31:43;;;;;;;5.57;2.20;;;;;;;18.80;87.07;100409.22;4968421;28;20243;-49
2023/09/20 10:34:09;;;;;;;9.00;2.60;;;;;;;18.82;87.20;100418.97;4985652;28;20181;-47
2023/09/20 10:36:35;;;;;;;4.30;2.20;;;;;;;18.83;86.59;100409.84;4970928;28;20208;-47
2023/09/20 10:39:19;;;;;;;9.07;2.95;;;;;;;18.97;86.47;100413.31;4966564;28;20194;-48
2023/09/20 10:41:46;;;;;;;6.45;2.40;;;;;;;18.84;86.55;100410.69;4970805;28;20230;-47
2023/09/20 10:44:28;;;;;;;7.57;2.40;;;;;;;18.64;86.70;100414.97;4971201;28;20662;-46
2023/09/20 10:46:58;;;;;;;5.95;2.35;;;;;;;18.69;87.06;100418.16;4968444;28;20649;-47
2023/09/20 10:49:48;;;;;;;7.63;2.20;;;;;;;18.69;87.17;100431.75;4969577;28;20193;-47
2023/09/20 10:52:58;;;;;;;3.80;2.33;;;;;;;18.65;87.27;100424.81;4967807;28;20211;-47
2023/09/20 10:55:23;;;;;;;5.53;2.30;;;;;;;18.58;87.43;100426.28;4908228;29;20192;-47
2023/09/20 10:57:50;;;;;;;5.00;2.45;;;;;;;18.65;87.54;100428.41;4965651;28;20582;-48
2023/09/20 11:00:25;;;;;;;3.97;2.10;;;;;;;18.83;87.53;100423.41;4972820;28;20198;-45
2023/09/20 11:02:56;;;;;;;6.82;2.53;;;;;;;18.87;86.88;100414.03;4969924;28;20235;-47
2023/09/20 11:05:26;;;;;;;4.07;1.98;;;;;;;18.87;86.69;100427.63;4969062;28;20246;-47
2023/09/20 11:07:55;;;;;;;8.90;2.08;;;;;;;18.98;86.76;100425.88;4976757;28;20658;-47
2023/09/20 11:10:21;;;;;;;6.55;2.47;;;;;;;19.08;85.69;100405.16;4970321;28;20593;-47
2023/09/20 11:12:48;;;;;;;5.50;2.50;;;;;;;19.29;85.45;100403.41;4967155;28;20197;-47
2023/09/20 11:15:13;;;;;;;6.38;2.63;;;;;;;19.75;85.04;100405.09;4976285;28;20177;-47
2023/09/20 11:17:39;;;;;;;5.53;2.17;;;;;;;19.80;83.87;100409.28;4971068;28;20573;-48
2023/09/20 11:20:07;;;;;;;5.47;2.10;;;;;;;19.84;83.09;100399.88;4973562;28;20182;-47
2023/09/20 11:22:33;;;;;;;8.77;2.55;;;;;;;19.77;82.39;100407.69;4968232;28;20604;-46
2023/09/20 11:25:00;;;;;;;5.40;2.20;;;;;;;19.79;82.34;100402.09;4972590;28;20197;-47
2023/09/20 11:27:27;;;;;;;6.30;1.98;;;;;;;20.00;81.81;100400.28;4974243;28;20193;-47
2023/09/20 11:29:54;;;;;;;3.33;1.75;;;;;;;20.14;81.08;100393.69;4967505;28;20265;-48
2023/09/20 11:32:22;;;;;;;7.10;2.08;;;;;;;20.20;80.54;100381.41;4970558;28;20221;-47
2023/09/20 11:34:49;;;;;;;3.33;2.15;;;;;;;20.19;80.13;100376.97;4969803;28;20173;-48
2023/09/20 11:37:17;;;;;;;3.90;2.30;;;;;;;20.34;80.35;100394.69;4986105;28;20181;-48
2023/09/20 11:39:44;;;;;;;5.70;2.13;;;;;;;20.34;80.00;100397.41;4963992;28;20208;-48
2023/09/20 11:42:10;;;;;;;5.72;2.05;;;;;;;20.09;79.75;100391.34;4968448;28;20232;-47
2023/09/20 11:44:36;;;;;;;5.20;1.95;;;;;;;19.74;79.83;100394.31;4972341;28;20186;-47
2023/09/20 11:47:03;;;;;;;6.55;1.85;;;;;;;19.66;81.03;100413.13;4965381;28;20260;-47
2023/09/20 11:49:29;;;;;;;5.53;2.25;;;;;;;19.45;80.50;100408.44;4967225;28;20212;-47
2023/09/20 11:51:57;;;;;;;5.10;1.70;;;;;;;19.53;80.93;100410.56;4967115;28;20622;-46
2023/09/20 11:54:32;;;;;;;2.88;1.80;;;;;;;19.59;80.86;100409.16;4971376;28;20256;-48
2023/09/20 11:57:01;;;;;;;2.67;1.65;;;;;;;19.74;81.34;100416.06;4999829;23;20221;-45
2023/09/20 11:59:27;;;;;;;3.78;1.80;;;;;;;19.71;80.69;100413.63;4991980;28;20593;-47
2023/09/20 12:01:53;;;;;;;5.75;2.05;;;;;;;19.58;81.13;100396.56;4991726;28;20193;-46
2023/09/20 12:04:18;;;;;;;4.72;1.67;;;;;;;19.65;81.44;100409.50;4991450;28;20177;-47
2023/09/20 12:06:44;;;;;;;3.92;1.90;;;;;;;19.52;81.25;100390.63;4991727;28;20173;-47